createdAt,value
2023-01-07T00:00:11.893Z,5.40
2023-01-07T00:01:11.823Z,5.60
2023-01-07T00:02:11.806Z,5.50
2023-01-07T00:03:11.759Z,5.30
2023-01-07T00:04:11.914Z,4.70
2023-01-07T00:05:11.805Z,6.00
2023-01-07T00:06:11.714Z,5.60
2023-01-07T00:07:11.988Z,5.40
2023-01-07T00:08:12.683Z,5.60
2023-01-07T00:09:11.663Z,4.60
2023-01-07T00:10:11.646Z,4.80
2023-01-07T00:11:11.666Z,5.70
2023-01-07T00:12:11.633Z,5.00
2023-01-07T00:13:11.594Z,5.30
2023-01-07T00:14:11.587Z,5.90
2023-01-07T00:15:11.546Z,4.70
2023-01-07T00:16:11.574Z,5.20
2023-01-07T00:17:11.548Z,4.30
2023-01-07T00:18:11.495Z,4.20
2023-01-07T00:19:11.474Z,5.30
2023-01-07T00:20:11.783Z,5.20
2023-01-07T00:21:11.536Z,5.80
2023-01-07T00:22:11.477Z,4.80
2023-01-07T00:23:11.421Z,4.80
2023-01-07T00:24:11.420Z,4.90
2023-01-07T00:25:11.382Z,6.00
2023-01-07T00:26:11.362Z,4.30
2023-01-07T00:27:11.386Z,4.90
2023-01-07T00:28:11.328Z,4.50
2023-01-07T00:29:11.316Z,5.30
2023-01-07T00:30:11.298Z,6.40
2023-01-07T00:31:11.310Z,5.20
2023-01-07T00:32:11.306Z,5.30
2023-01-07T00:33:11.239Z,4.60
2023-01-07T00:34:11.249Z,4.10
2023-01-07T00:35:11.215Z,4.70
2023-01-07T00:36:11.243Z,4.50
2023-01-07T00:37:11.263Z,6.70
2023-01-07T00:38:11.149Z,6.70
2023-01-07T00:39:11.146Z,5.30
2023-01-07T00:40:11.112Z,5.00
2023-01-07T00:41:11.102Z,5.20
2023-01-07T00:42:11.127Z,5.80
2023-01-07T00:43:11.054Z,4.80
2023-01-07T00:44:11.057Z,5.50
2023-01-07T00:45:11.028Z,4.90
2023-01-07T00:46:11.096Z,5.40
2023-01-07T00:47:12.031Z,4.80
2023-01-07T00:48:10.989Z,5.60
2023-01-07T00:49:10.954Z,4.80
2023-01-07T00:50:10.940Z,5.10
2023-01-07T00:51:10.912Z,5.70
2023-01-07T00:52:10.935Z,5.20
2023-01-07T00:53:10.886Z,5.40
2023-01-07T00:54:10.907Z,5.10
2023-01-07T00:55:10.857Z,5.60
2023-01-07T00:56:10.839Z,5.40
2023-01-07T00:57:11.214Z,5.00
2023-01-07T00:58:10.809Z,4.90
2023-01-07T00:59:10.793Z,5.80
2023-01-07T01:00:10.794Z,4.60
2023-01-07T01:01:11.011Z,5.00
2023-01-07T01:02:11.956Z,4.70
2023-01-07T01:03:13.413Z,6.70
2023-01-07T01:04:11.007Z,5.30
2023-01-07T01:05:10.887Z,5.50
2023-01-07T01:06:10.665Z,5.20
2023-01-07T01:07:11.267Z,5.00
2023-01-07T01:08:10.634Z,4.10
2023-01-07T01:09:10.703Z,4.90
2023-01-07T01:10:11.075Z,3.90
2023-01-07T01:11:10.599Z,4.60
2023-01-07T01:12:10.611Z,4.70
2023-01-07T01:13:11.013Z,5.30
2023-01-07T01:14:10.537Z,3.80
2023-01-07T01:15:10.530Z,4.30
2023-01-07T01:16:11.353Z,4.70
2023-01-07T01:17:15.050Z,3.70
2023-01-07T01:18:10.793Z,3.90
2023-01-07T01:19:10.516Z,4.00
2023-01-07T01:20:10.571Z,4.70
2023-01-07T01:21:10.415Z,4.90
2023-01-07T01:22:10.388Z,4.20
2023-01-07T01:23:10.699Z,4.10
2023-01-07T01:24:10.382Z,4.80
2023-01-07T01:25:10.411Z,4.40
2023-01-07T01:26:10.330Z,4.40
2023-01-07T01:27:10.312Z,4.00
2023-01-07T01:28:10.383Z,5.00
2023-01-07T01:29:10.263Z,4.70
2023-01-07T01:30:10.251Z,4.30
2023-01-07T01:31:10.289Z,4.50
2023-01-07T01:32:10.219Z,5.10
2023-01-07T01:33:13.046Z,4.90
2023-01-07T01:34:11.222Z,5.40
2023-01-07T01:35:10.168Z,4.60
2023-01-07T01:36:11.991Z,5.70
2023-01-07T01:37:10.258Z,4.60
2023-01-07T01:38:10.445Z,4.90
2023-01-07T01:39:10.134Z,8.10
2023-01-07T01:40:10.094Z,7.10
2023-01-07T01:41:10.564Z,6.60
2023-01-07T01:42:10.045Z,5.50
2023-01-07T01:43:10.068Z,5.90
2023-01-07T01:44:11.129Z,6.10
2023-01-07T01:45:11.062Z,5.40
2023-01-07T01:46:10.337Z,6.10
2023-01-07T01:47:10.286Z,5.10
2023-01-07T01:48:10.002Z,6.00
2023-01-07T01:49:10.335Z,6.10
2023-01-07T01:50:09.907Z,6.00
2023-01-07T01:51:09.892Z,6.10
2023-01-07T01:52:09.880Z,5.20
2023-01-07T01:53:09.898Z,5.70
2023-01-07T01:54:09.871Z,6.40
2023-01-07T01:55:09.826Z,6.90
2023-01-07T01:56:09.820Z,6.00
2023-01-07T01:57:09.851Z,6.10
2023-01-07T01:58:09.846Z,5.60
2023-01-07T01:59:09.750Z,6.50
2023-01-07T02:00:09.751Z,7.70
2023-01-07T02:01:09.820Z,5.10
2023-01-07T02:02:09.782Z,5.90
2023-01-07T02:03:09.732Z,5.70
2023-01-07T02:04:09.668Z,5.90
2023-01-07T02:05:09.652Z,6.20
2023-01-07T02:06:09.634Z,5.50
2023-01-07T02:07:09.623Z,6.30
2023-01-07T02:08:09.636Z,6.40
2023-01-07T02:09:09.588Z,6.30
2023-01-07T02:10:09.568Z,6.10
2023-01-07T02:11:09.567Z,6.50
2023-01-07T02:12:09.534Z,6.80
2023-01-07T02:13:09.608Z,5.90
2023-01-07T02:14:09.493Z,6.20
2023-01-07T02:15:09.491Z,8.50
2023-01-07T02:16:09.493Z,6.50
2023-01-07T02:17:09.448Z,6.10
2023-01-07T02:18:09.469Z,6.60
2023-01-07T02:19:09.412Z,7.30
2023-01-07T02:20:09.422Z,6.90
2023-01-07T02:21:09.392Z,7.10
2023-01-07T02:22:09.354Z,8.20
2023-01-07T02:23:09.382Z,6.10
2023-01-07T02:24:09.372Z,7.00
2023-01-07T02:25:09.327Z,7.30
2023-01-07T02:26:09.283Z,6.30
2023-01-07T02:27:09.790Z,7.50
2023-01-07T02:28:09.298Z,7.90
2023-01-07T02:29:09.472Z,8.50
2023-01-07T02:30:09.224Z,7.70
2023-01-07T02:31:09.727Z,7.80
2023-01-07T02:32:09.545Z,7.80
2023-01-07T02:33:09.206Z,7.00
2023-01-07T02:34:09.266Z,8.40
2023-01-07T02:35:10.137Z,7.70
2023-01-07T02:36:09.152Z,8.90
2023-01-07T02:37:10.109Z,7.60
2023-01-07T02:38:09.142Z,7.70
2023-01-07T02:39:09.061Z,7.70
2023-01-07T02:40:09.403Z,8.00
2023-01-07T02:41:09.285Z,7.20
2023-01-07T02:42:10.041Z,8.30
2023-01-07T02:43:09.450Z,8.10
2023-01-07T02:44:08.985Z,8.40
2023-01-07T02:45:08.979Z,8.50
2023-01-07T02:46:08.986Z,8.60
2023-01-07T02:47:09.084Z,7.60
2023-01-07T02:48:09.027Z,7.50
2023-01-07T02:49:08.902Z,7.80
2023-01-07T02:50:08.872Z,7.60
2023-01-07T02:51:08.857Z,8.10
2023-01-07T02:52:08.843Z,8.90
2023-01-07T02:53:08.889Z,8.90
2023-01-07T02:54:08.814Z,8.60
2023-01-07T02:55:08.789Z,9.30
2023-01-07T02:56:08.781Z,8.80
2023-01-07T02:57:08.755Z,8.20
2023-01-07T02:58:08.758Z,8.50
2023-01-07T02:59:08.722Z,8.20
2023-01-07T03:00:08.723Z,7.90
2023-01-07T03:01:08.934Z,8.20
2023-01-07T03:02:08.683Z,10.30
2023-01-07T03:03:08.693Z,11.00
2023-01-07T03:04:08.695Z,10.30
2023-01-07T03:05:08.629Z,9.10
2023-01-07T03:06:08.613Z,10.00
2023-01-07T03:07:09.252Z,10.00
2023-01-07T03:08:08.599Z,10.10
2023-01-07T03:09:08.593Z,9.40
2023-01-07T03:10:08.766Z,10.70
2023-01-07T03:11:08.566Z,10.20
2023-01-07T03:12:08.503Z,9.50
2023-01-07T03:13:08.509Z,9.60
2023-01-07T03:14:08.635Z,10.10
2023-01-07T03:15:08.447Z,9.50
2023-01-07T03:16:09.224Z,11.00
2023-01-07T03:17:08.494Z,11.10
2023-01-07T03:18:08.437Z,9.60
2023-01-07T03:19:08.419Z,9.80
2023-01-07T03:20:08.376Z,9.30
2023-01-07T03:21:08.348Z,10.00
2023-01-07T03:22:08.326Z,10.20
2023-01-07T03:23:09.095Z,10.90
2023-01-07T03:24:09.199Z,10.40
2023-01-07T03:25:08.428Z,12.10
2023-01-07T03:26:08.301Z,10.70
2023-01-07T03:27:08.710Z,9.80
2023-01-07T03:28:08.653Z,10.60
2023-01-07T03:29:08.213Z,11.50
2023-01-07T03:30:08.245Z,11.40
2023-01-07T03:31:08.203Z,12.70
2023-01-07T03:32:08.155Z,10.30
2023-01-07T03:33:08.254Z,11.80
2023-01-07T03:34:08.137Z,11.90
2023-01-07T03:35:08.105Z,13.10
2023-01-07T03:36:08.099Z,12.40
2023-01-07T03:37:08.063Z,13.80
2023-01-07T03:38:08.097Z,13.50
2023-01-07T03:39:08.024Z,12.90
2023-01-07T03:40:08.031Z,11.90
2023-01-07T03:41:07.993Z,11.90
2023-01-07T03:42:07.983Z,13.20
2023-01-07T03:43:08.044Z,12.10
2023-01-07T03:44:07.958Z,12.20
2023-01-07T03:45:07.933Z,11.80
2023-01-07T03:46:07.943Z,12.90
2023-01-07T03:47:07.930Z,13.70
2023-01-07T03:48:07.920Z,14.70
2023-01-07T03:49:07.940Z,12.30
2023-01-07T03:50:07.856Z,12.30
2023-01-07T03:51:07.846Z,11.30
2023-01-07T03:52:07.812Z,12.20
2023-01-07T03:53:07.804Z,14.30
2023-01-07T03:54:07.829Z,13.50
2023-01-07T03:55:07.770Z,13.30
2023-01-07T03:56:07.745Z,12.60
2023-01-07T03:57:07.741Z,12.70
2023-01-07T03:58:07.714Z,13.90
2023-01-07T03:59:07.727Z,13.60
2023-01-07T04:00:07.675Z,11.70
2023-01-07T04:01:07.786Z,12.50
2023-01-07T04:02:07.875Z,14.50
2023-01-07T04:03:07.656Z,12.90
2023-01-07T04:04:07.688Z,12.60
2023-01-07T04:05:07.666Z,12.70
2023-01-07T04:06:07.615Z,14.00
2023-01-07T04:07:07.576Z,12.50
2023-01-07T04:08:07.554Z,14.00
2023-01-07T04:09:07.555Z,15.40
2023-01-07T04:10:07.512Z,14.70
2023-01-07T04:11:07.490Z,13.90
2023-01-07T04:12:07.492Z,14.80
2023-01-07T04:13:07.477Z,14.20
2023-01-07T04:14:07.470Z,14.90
2023-01-07T04:15:07.427Z,13.60
2023-01-07T04:16:07.417Z,13.80
2023-01-07T04:17:07.404Z,14.40
2023-01-07T04:18:07.388Z,13.80
2023-01-07T04:19:07.392Z,13.90
2023-01-07T04:20:07.341Z,13.90
2023-01-07T04:21:07.401Z,14.80
2023-01-07T04:22:07.346Z,15.00
2023-01-07T04:23:07.304Z,13.10
2023-01-07T04:24:07.325Z,15.30
2023-01-07T04:25:07.263Z,15.00
2023-01-07T04:26:07.582Z,15.80
2023-01-07T04:27:07.232Z,13.90
2023-01-07T04:28:07.209Z,13.90
2023-01-07T04:29:07.240Z,14.50
2023-01-07T04:30:07.211Z,15.30
2023-01-07T04:31:08.052Z,14.50
2023-01-07T04:32:07.149Z,14.20
2023-01-07T04:33:07.119Z,15.10
2023-01-07T04:34:07.139Z,15.60
2023-01-07T04:35:07.089Z,14.30
2023-01-07T04:36:07.080Z,14.90
2023-01-07T04:37:07.069Z,17.90
2023-01-07T04:38:07.048Z,16.90
2023-01-07T04:39:07.056Z,16.70
2023-01-07T04:40:06.998Z,17.40
2023-01-07T04:41:07.020Z,18.60
2023-01-07T04:42:06.981Z,16.80
2023-01-07T04:43:06.956Z,18.00
2023-01-07T04:44:06.983Z,18.50
2023-01-07T04:45:06.913Z,19.60
2023-01-07T04:50:46.019Z,17.20
2023-01-07T04:51:46.007Z,18.90
2023-01-07T04:52:46.069Z,16.30
2023-01-07T04:53:46.001Z,17.90
2023-01-07T04:54:45.948Z,17.30
2023-01-07T04:55:46.538Z,15.60
2023-01-07T04:56:45.908Z,17.00
2023-01-07T04:57:45.889Z,15.40
2023-01-07T04:58:45.902Z,15.50
2023-01-07T04:59:45.876Z,14.90
2023-01-07T05:00:45.852Z,14.70
2023-01-07T05:01:45.868Z,15.30
2023-01-07T05:02:45.809Z,15.30
2023-01-07T05:03:45.815Z,15.20
2023-01-07T05:04:45.810Z,14.50
2023-01-07T05:05:45.737Z,14.00
2023-01-07T05:06:45.730Z,15.20
2023-01-07T05:07:45.703Z,15.10
2023-01-07T05:08:45.722Z,15.50
2023-01-07T05:09:45.683Z,15.30
2023-01-07T05:10:46.810Z,13.80
2023-01-07T05:11:46.795Z,17.10
2023-01-07T05:12:46.785Z,14.90
2023-01-07T05:13:46.787Z,13.60
2023-01-07T05:14:46.773Z,13.70
2023-01-07T05:15:46.740Z,15.40
2023-01-07T05:16:46.777Z,16.20
2023-01-07T05:17:47.727Z,14.60
2023-01-07T05:18:46.704Z,13.40
2023-01-07T05:19:46.658Z,15.20
2023-01-07T05:20:46.641Z,15.50
2023-01-07T05:21:46.628Z,13.30
2023-01-07T05:22:46.623Z,13.20
2023-01-07T05:23:46.643Z,14.10
2023-01-07T05:24:46.649Z,14.40
2023-01-07T05:25:46.564Z,14.40
2023-01-07T05:26:46.547Z,13.90
2023-01-07T05:27:46.519Z,13.30
2023-01-07T05:28:46.527Z,14.80
2023-01-07T05:29:46.506Z,14.40
2023-01-07T05:30:46.536Z,15.00
2023-01-07T05:31:46.444Z,14.60
2023-01-07T05:32:46.435Z,14.80
2023-01-07T05:33:46.445Z,14.40
2023-01-07T05:34:46.395Z,13.50
2023-01-07T05:35:46.412Z,15.50
2023-01-07T05:36:46.352Z,13.80
2023-01-07T05:37:47.344Z,13.00
2023-01-07T05:38:46.373Z,15.40
2023-01-07T05:39:47.299Z,13.20
2023-01-07T05:40:48.297Z,14.70
2023-01-07T05:41:46.286Z,13.70
2023-01-07T05:42:46.262Z,14.70
2023-01-07T05:43:46.282Z,15.80
2023-01-07T05:44:46.229Z,15.50
2023-01-07T05:45:46.294Z,14.20
2023-01-07T05:46:46.192Z,12.90
2023-01-07T05:47:46.175Z,13.00
2023-01-07T05:48:46.214Z,14.00
2023-01-07T05:49:46.154Z,13.70
2023-01-07T05:50:46.130Z,14.00
2023-01-07T05:51:46.113Z,12.90
2023-01-07T05:52:46.111Z,15.70
2023-01-07T05:53:46.128Z,12.90
2023-01-07T05:54:46.084Z,14.90
2023-01-07T05:55:46.038Z,14.40
2023-01-07T05:56:46.123Z,13.90
2023-01-07T05:57:46.008Z,14.90
2023-01-07T05:58:46.025Z,14.40
2023-01-07T05:59:45.980Z,13.50
2023-01-07T06:00:45.960Z,13.10
2023-01-07T06:01:45.936Z,12.80
2023-01-07T06:02:45.918Z,13.20
2023-01-07T06:03:46.043Z,12.40
2023-01-07T06:04:45.933Z,12.20
2023-01-07T06:05:45.876Z,13.30
2023-01-07T06:06:45.856Z,13.10
2023-01-07T06:07:46.833Z,13.00
2023-01-07T06:08:45.883Z,12.60
2023-01-07T06:09:45.802Z,11.80
2023-01-07T06:10:45.774Z,12.50
2023-01-07T06:11:45.776Z,11.90
2023-01-07T06:12:45.818Z,12.10
2023-01-07T06:13:45.760Z,11.70
2023-01-07T06:14:45.721Z,11.80
2023-01-07T06:15:45.716Z,10.90
2023-01-07T06:16:45.680Z,12.80
2023-01-07T06:17:45.685Z,11.50
2023-01-07T06:18:45.693Z,11.50
2023-01-07T06:19:45.641Z,10.70
2023-01-07T06:20:45.614Z,10.70
2023-01-07T06:21:45.599Z,13.00
2023-01-07T06:22:45.577Z,12.00
2023-01-07T06:23:45.616Z,11.70
2023-01-07T06:24:45.551Z,12.30
2023-01-07T06:25:45.529Z,14.50
2023-01-07T06:26:45.597Z,13.70
2023-01-07T06:27:45.498Z,14.90
2023-01-07T06:28:45.604Z,14.70
2023-01-07T06:29:45.551Z,14.30
2023-01-07T06:30:45.499Z,12.80
2023-01-07T06:31:45.444Z,11.70
2023-01-07T06:32:45.456Z,13.30
2023-01-07T06:33:45.419Z,12.40
2023-01-07T06:34:45.419Z,11.40
2023-01-07T06:35:45.363Z,10.60
2023-01-07T06:36:45.360Z,11.50
2023-01-07T06:37:45.345Z,11.90
2023-01-07T06:38:45.350Z,12.00
2023-01-07T06:39:45.296Z,10.40
2023-01-07T06:40:45.281Z,10.60
2023-01-07T06:41:45.263Z,10.10
2023-01-07T06:42:45.271Z,9.40
2023-01-07T06:43:45.241Z,11.10
2023-01-07T06:44:45.308Z,11.70
2023-01-07T06:45:45.214Z,10.70
2023-01-07T06:46:45.215Z,10.50
2023-01-07T06:47:45.155Z,11.80
2023-01-07T06:48:45.151Z,10.90
2023-01-07T06:49:45.168Z,10.60
2023-01-07T06:50:45.102Z,11.60
2023-01-07T06:51:45.095Z,12.00
2023-01-07T06:52:45.084Z,11.80
2023-01-07T06:53:45.064Z,11.00
2023-01-07T06:54:47.545Z,10.80
2023-01-07T06:55:45.084Z,11.00
2023-01-07T06:56:45.038Z,10.50
2023-01-07T06:57:45.017Z,10.20
2023-01-07T06:58:44.972Z,12.00
2023-01-07T06:59:44.985Z,11.20
2023-01-07T07:00:45.037Z,10.90
2023-01-07T07:01:46.594Z,12.30
2023-01-07T07:02:45.956Z,9.70
2023-01-07T07:03:44.895Z,10.50
2023-01-07T07:04:44.909Z,10.80
2023-01-07T07:05:44.869Z,10.40
2023-01-07T07:06:44.842Z,10.60
2023-01-07T07:07:44.826Z,12.10
2023-01-07T07:08:44.810Z,10.50
2023-01-07T07:09:44.825Z,10.40
2023-01-07T07:10:44.780Z,10.40
2023-01-07T07:11:44.756Z,10.50
2023-01-07T07:12:44.733Z,10.10
2023-01-07T07:13:44.718Z,10.60
2023-01-07T07:14:44.731Z,11.30
2023-01-07T07:15:44.761Z,12.30
2023-01-07T07:16:44.734Z,11.00
2023-01-07T07:17:44.656Z,10.60
2023-01-07T07:18:44.642Z,11.40
2023-01-07T07:19:44.651Z,10.40
2023-01-07T07:20:44.608Z,10.50
2023-01-07T07:21:44.590Z,11.60
2023-01-07T07:22:44.578Z,11.00
2023-01-07T07:23:44.556Z,10.80
2023-01-07T07:24:44.604Z,10.80
2023-01-07T07:25:44.552Z,10.70
2023-01-07T07:26:44.565Z,11.30
2023-01-07T07:27:44.486Z,9.50
2023-01-07T07:28:44.468Z,11.00
2023-01-07T07:29:44.495Z,10.50
2023-01-07T07:30:47.602Z,10.10
2023-01-07T07:31:44.453Z,10.60
2023-01-07T07:32:44.479Z,11.20
2023-01-07T07:33:44.395Z,10.60
2023-01-07T07:34:44.479Z,10.60
2023-01-07T07:35:44.359Z,9.80
2023-01-07T07:36:44.377Z,9.70
2023-01-07T07:37:44.338Z,8.50
2023-01-07T07:38:44.299Z,9.00
2023-01-07T07:39:44.314Z,8.50
2023-01-07T07:40:44.271Z,8.50
2023-01-07T07:41:44.263Z,9.80
2023-01-07T07:43:11.295Z,8.30
2023-01-07T07:43:45.234Z,8.30
2023-01-07T07:44:44.227Z,8.40
2023-01-07T07:45:44.195Z,8.20
2023-01-07T07:46:44.329Z,8.60
2023-01-07T07:47:44.152Z,7.70
2023-01-07T07:48:44.218Z,8.30
2023-01-07T07:49:45.172Z,7.70
2023-01-07T07:50:44.169Z,7.30
2023-01-07T07:51:44.100Z,6.50
2023-01-07T07:52:44.077Z,8.70
2023-01-07T07:53:44.077Z,7.70
2023-01-07T07:54:44.055Z,7.00
2023-01-07T07:55:44.057Z,7.70
2023-01-07T07:56:44.020Z,7.70
2023-01-07T07:57:43.992Z,7.40
2023-01-07T07:58:44.013Z,7.50
2023-01-07T07:59:44.010Z,7.90
2023-01-07T08:00:43.968Z,6.80
2023-01-07T08:01:43.990Z,8.00
2023-01-07T08:02:43.909Z,7.10
2023-01-07T08:03:43.989Z,9.10
2023-01-07T08:04:43.980Z,8.60
2023-01-07T08:05:43.854Z,8.20
2023-01-07T08:06:43.833Z,8.80
2023-01-07T08:07:43.826Z,7.80
2023-01-07T08:08:43.786Z,7.40
2023-01-07T08:09:43.823Z,7.00
2023-01-07T08:10:43.750Z,7.50
2023-01-07T08:11:43.758Z,7.60
2023-01-07T08:12:43.718Z,7.20
2023-01-07T08:13:43.702Z,7.80
2023-01-07T08:14:43.975Z,6.90
2023-01-07T08:15:44.695Z,7.50
2023-01-07T08:16:43.684Z,7.70
2023-01-07T08:17:43.646Z,6.50
2023-01-07T08:18:43.658Z,7.40
2023-01-07T08:19:43.639Z,6.60
2023-01-07T08:20:43.674Z,6.60
2023-01-07T08:21:43.611Z,8.20
2023-01-07T08:22:43.574Z,7.50
2023-01-07T08:23:43.567Z,6.60
2023-01-07T08:24:43.569Z,7.90
2023-01-07T08:25:43.498Z,6.30
2023-01-07T08:26:43.524Z,6.90
2023-01-07T08:27:43.489Z,7.10
2023-01-07T08:28:45.776Z,6.30
2023-01-07T08:29:43.452Z,5.90
2023-01-07T08:30:43.485Z,6.20
2023-01-07T08:31:43.491Z,5.90
2023-01-07T08:32:43.398Z,6.40
2023-01-07T08:33:43.391Z,6.30
2023-01-07T08:34:43.436Z,4.50
2023-01-07T08:35:43.352Z,4.60
2023-01-07T08:36:43.387Z,4.60
2023-01-07T08:37:43.312Z,4.80
2023-01-07T08:38:43.284Z,5.20
2023-01-07T08:39:43.261Z,3.90
2023-01-07T08:40:43.283Z,4.30
2023-01-07T08:41:43.275Z,4.20
2023-01-07T08:42:43.231Z,4.10
2023-01-07T08:43:43.206Z,4.40
2023-01-07T08:44:43.195Z,4.80
2023-01-07T08:45:43.212Z,3.80
2023-01-07T08:46:43.224Z,4.90
2023-01-07T08:47:44.813Z,4.50
2023-01-07T08:48:43.119Z,4.70
2023-01-07T08:49:43.113Z,4.30
2023-01-07T08:50:43.109Z,4.60
2023-01-07T08:51:43.107Z,5.40
2023-01-07T08:52:43.112Z,5.40
2023-01-07T08:53:43.061Z,3.50
2023-01-07T08:54:43.016Z,3.70
2023-01-07T08:55:43.026Z,4.30
2023-01-07T08:56:42.985Z,4.50
2023-01-07T08:57:42.974Z,4.10
2023-01-07T08:58:42.949Z,3.30
2023-01-07T08:59:42.936Z,4.60
2023-01-07T09:00:43.005Z,4.50
2023-01-07T09:01:43.083Z,4.60
2023-01-07T09:02:42.956Z,5.20
2023-01-07T09:03:42.870Z,11.30
2023-01-07T09:04:42.843Z,5.20
2023-01-07T09:05:42.885Z,5.70
2023-01-07T09:06:42.826Z,6.40
2023-01-07T09:07:42.790Z,5.90
2023-01-07T09:08:42.851Z,6.90
2023-01-07T09:09:43.768Z,5.80
2023-01-07T09:10:42.808Z,5.10
2023-01-07T09:11:42.726Z,6.90
2023-01-07T09:12:42.724Z,5.80
2023-01-07T09:13:42.699Z,6.50
2023-01-07T09:14:42.683Z,6.60
2023-01-07T09:15:42.732Z,9.20
2023-01-07T09:16:42.783Z,8.00
2023-01-07T09:17:42.632Z,6.70
2023-01-07T09:18:42.616Z,6.60
2023-01-07T09:19:42.593Z,6.70
2023-01-07T09:20:42.643Z,8.40
2023-01-07T09:21:42.558Z,7.00
2023-01-07T09:22:42.554Z,7.60
2023-01-07T09:23:42.519Z,7.50
2023-01-07T09:24:42.582Z,10.90
2023-01-07T09:25:42.526Z,9.60
2023-01-07T09:26:42.473Z,7.90
2023-01-07T09:27:42.466Z,8.30
2023-01-07T09:28:42.441Z,10.10
2023-01-07T09:29:42.438Z,9.50
2023-01-07T09:30:42.441Z,9.50
2023-01-07T09:31:42.442Z,10.40
2023-01-07T09:32:42.374Z,8.20
2023-01-07T09:33:42.360Z,8.60
2023-01-07T09:34:42.330Z,8.70
2023-01-07T09:35:42.415Z,9.90
2023-01-07T09:36:42.319Z,8.70
2023-01-07T09:37:42.287Z,8.80
2023-01-07T09:38:42.258Z,9.50
2023-01-07T09:39:43.267Z,8.80
2023-01-07T09:40:42.335Z,8.80
2023-01-07T09:41:42.319Z,8.40
2023-01-07T09:42:42.220Z,8.50
2023-01-07T09:44:00.863Z,9.20
2023-01-07T09:44:43.188Z,9.30
2023-01-07T09:45:42.270Z,9.90
2023-01-07T09:46:42.160Z,8.90
2023-01-07T09:47:42.132Z,7.70
2023-01-07T09:48:42.108Z,8.10
2023-01-07T09:49:42.110Z,7.70
2023-01-07T09:50:42.115Z,7.80
2023-01-07T09:51:42.058Z,9.10
2023-01-07T09:52:42.058Z,8.00
2023-01-07T09:53:42.037Z,8.00
2023-01-07T09:54:41.995Z,7.30
2023-01-07T09:56:09.921Z,7.60
2023-01-07T09:56:43.039Z,7.50
2023-01-07T09:57:41.955Z,7.70
2023-01-07T09:58:41.940Z,8.50
2023-01-07T09:59:41.937Z,6.70
2023-01-07T10:00:41.939Z,7.80
2023-01-07T10:01:41.899Z,7.30
2023-01-07T10:02:41.940Z,8.80
2023-01-07T10:03:41.940Z,7.80
2023-01-07T10:04:41.851Z,7.60
2023-01-07T10:05:41.875Z,8.30
2023-01-07T10:06:43.792Z,8.40
2023-01-07T10:07:42.788Z,7.70
2023-01-07T10:08:41.796Z,9.70
2023-01-07T10:09:41.754Z,8.60
2023-01-07T10:10:41.817Z,8.90
2023-01-07T10:11:43.457Z,7.60
2023-01-07T10:12:41.773Z,6.80
2023-01-07T10:13:41.691Z,7.30
2023-01-07T10:14:43.611Z,7.00
2023-01-07T10:15:41.731Z,7.00
2023-01-07T10:16:41.712Z,6.00
2023-01-07T10:17:41.650Z,7.10
2023-01-07T10:18:41.607Z,6.10
2023-01-07T10:19:42.461Z,7.20
2023-01-07T10:20:41.620Z,7.10
2023-01-07T10:21:41.563Z,7.50
2023-01-07T10:22:41.573Z,7.20
2023-01-07T10:23:41.520Z,7.40
2023-01-07T10:24:41.513Z,7.40
2023-01-07T10:25:41.537Z,7.90
2023-01-07T10:27:13.333Z,6.30
2023-01-07T10:27:41.459Z,7.10
2023-01-07T10:28:41.502Z,7.20
2023-01-07T10:29:41.415Z,8.00
2023-01-07T10:30:41.813Z,7.30
2023-01-07T10:31:42.416Z,8.70
2023-01-07T10:32:41.378Z,8.00
2023-01-07T10:33:41.339Z,9.40
2023-01-07T10:34:41.342Z,7.50
2023-01-07T10:35:41.344Z,7.90
2023-01-07T10:36:41.308Z,8.70
2023-01-07T10:37:41.281Z,9.20
2023-01-07T10:38:41.324Z,8.60
2023-01-07T10:39:41.241Z,7.40
2023-01-07T10:40:41.254Z,7.50
2023-01-07T10:41:41.207Z,6.90
2023-01-07T10:42:41.238Z,9.30
2023-01-07T10:43:41.193Z,6.80
2023-01-07T10:44:41.238Z,6.30
2023-01-07T10:45:41.262Z,7.70
2023-01-07T10:46:41.128Z,8.10
2023-01-07T10:47:41.129Z,7.50
2023-01-07T10:48:41.097Z,6.30
2023-01-07T10:49:41.074Z,5.70
2023-01-07T10:50:41.115Z,7.10
2023-01-07T10:51:41.049Z,7.90
2023-01-07T10:52:41.038Z,6.10
2023-01-07T10:53:41.023Z,6.10
2023-01-07T10:54:40.995Z,7.60
2023-01-07T10:55:41.030Z,5.50
2023-01-07T10:56:40.967Z,5.30
2023-01-07T10:57:40.943Z,6.40
2023-01-07T10:58:40.924Z,6.30
2023-01-07T10:59:40.975Z,5.70
2023-01-07T11:00:40.967Z,4.30
2023-01-07T11:01:41.065Z,6.90
2023-01-07T11:02:40.942Z,5.50
2023-01-07T11:03:40.856Z,6.00
2023-01-07T11:04:40.836Z,6.50
2023-01-07T11:05:40.801Z,5.20
2023-01-07T11:06:40.879Z,4.10
2023-01-07T11:07:40.769Z,5.50
2023-01-07T11:08:40.751Z,6.20
2023-01-07T11:09:40.739Z,6.20
2023-01-07T11:10:40.733Z,5.60
2023-01-07T11:11:40.736Z,6.00
2023-01-07T11:12:40.687Z,5.30
2023-01-07T11:13:40.671Z,4.80
2023-01-07T11:14:40.662Z,4.10
2023-01-07T11:15:40.631Z,4.50
2023-01-07T11:16:40.802Z,4.60
2023-01-07T11:17:40.611Z,5.00
2023-01-07T11:18:40.601Z,4.30
2023-01-07T11:19:40.560Z,4.10
2023-01-07T11:20:40.544Z,4.40
2023-01-07T11:21:42.468Z,4.10
2023-01-07T11:22:40.524Z,5.60
2023-01-07T11:23:42.767Z,6.70
2023-01-07T11:24:40.521Z,4.30
2023-01-07T11:25:40.475Z,5.00
2023-01-07T11:26:40.480Z,3.10
2023-01-07T11:27:40.436Z,3.90
2023-01-07T11:28:40.418Z,3.80
2023-01-07T11:29:40.398Z,5.80
2023-01-07T11:30:40.373Z,3.40
2023-01-07T11:31:40.422Z,4.40
2023-01-07T11:32:40.453Z,4.40
2023-01-07T11:34:03.295Z,4.90
2023-01-07T11:34:41.310Z,4.80
2023-01-07T11:35:40.312Z,4.50
2023-01-07T11:36:40.305Z,4.00
2023-01-07T11:37:40.262Z,5.20
2023-01-07T11:38:40.256Z,5.60
2023-01-07T11:39:40.216Z,5.10
2023-01-07T11:40:40.217Z,4.90
2023-01-07T11:41:40.220Z,4.20
2023-01-07T11:42:40.180Z,3.10
2023-01-07T11:43:41.165Z,3.70
2023-01-07T11:44:40.143Z,4.70
2023-01-07T11:45:40.145Z,5.90
2023-01-07T11:46:40.180Z,7.30
2023-01-07T11:47:40.083Z,7.40
2023-01-07T11:48:40.141Z,9.40
2023-01-07T11:49:40.072Z,6.10
2023-01-07T11:50:40.042Z,4.20
2023-01-07T11:51:40.048Z,6.60
2023-01-07T11:52:40.001Z,3.80
2023-01-07T11:53:39.994Z,5.00
2023-01-07T11:54:39.969Z,4.90
2023-01-07T11:55:39.954Z,3.40
2023-01-07T11:56:39.967Z,3.30
2023-01-07T11:57:39.933Z,3.60
2023-01-07T11:58:39.912Z,3.20
2023-01-07T11:59:39.905Z,3.90
2023-01-07T12:00:40.874Z,3.40
2023-01-07T12:01:39.901Z,3.70
2023-01-07T12:02:39.944Z,3.70
2023-01-07T12:03:39.893Z,2.60
2023-01-07T12:04:39.896Z,3.50
2023-01-07T12:05:39.812Z,3.80
2023-01-07T12:06:39.849Z,4.30
2023-01-07T12:07:41.887Z,3.90
2023-01-07T12:08:39.749Z,3.90
2023-01-07T12:09:39.729Z,4.30
2023-01-07T12:10:39.713Z,3.40
2023-01-07T12:11:39.713Z,4.20
2023-01-07T12:12:39.663Z,2.70
2023-01-07T12:13:39.652Z,3.40
2023-01-07T12:14:39.642Z,3.80
2023-01-07T12:15:39.617Z,4.20
2023-01-07T12:16:39.692Z,5.20
2023-01-07T12:17:39.604Z,4.70
2023-01-07T12:18:39.574Z,4.00
2023-01-07T12:19:39.618Z,3.80
2023-01-07T12:20:39.601Z,3.00
2023-01-07T12:21:39.549Z,3.00
2023-01-07T12:22:39.512Z,3.20
2023-01-07T12:23:39.487Z,3.20
2023-01-07T12:24:39.468Z,4.60
2023-01-07T12:25:39.455Z,3.60
2023-01-07T12:26:39.470Z,3.90
2023-01-07T12:27:39.425Z,3.80
2023-01-07T12:28:39.412Z,3.30
2023-01-07T12:29:39.396Z,3.10
2023-01-07T12:30:39.376Z,3.30
2023-01-07T12:31:39.453Z,3.50
2023-01-07T12:32:39.349Z,3.60
2023-01-07T12:33:39.312Z,3.00
2023-01-07T12:34:40.321Z,5.20
2023-01-07T12:35:39.281Z,3.60
2023-01-07T12:36:39.368Z,3.60
2023-01-07T12:37:39.251Z,3.20
2023-01-07T12:38:39.265Z,3.50
2023-01-07T12:39:39.218Z,3.90
2023-01-07T12:40:39.194Z,3.70
2023-01-07T12:41:39.212Z,3.40
2023-01-07T12:42:39.179Z,4.70
2023-01-07T12:43:39.157Z,4.70
2023-01-07T12:44:39.126Z,4.40
2023-01-07T12:45:39.123Z,3.50
2023-01-07T12:46:40.000Z,4.90
2023-01-07T12:47:39.091Z,3.20
2023-01-07T12:48:39.069Z,4.20
2023-01-07T12:49:39.053Z,3.30
2023-01-07T12:50:39.031Z,15.10
2023-01-07T12:51:39.045Z,7.60
2023-01-07T12:52:39.108Z,11.60
2023-01-07T12:53:38.984Z,3.60
2023-01-07T12:54:38.984Z,4.80
2023-01-07T12:55:38.953Z,3.70
2023-01-07T12:56:38.971Z,4.70
2023-01-07T12:57:38.922Z,3.80
2023-01-07T12:58:38.922Z,5.20
2023-01-07T12:59:45.634Z,4.00
2023-01-07T13:00:39.893Z,4.40
2023-01-07T13:01:39.031Z,3.10
2023-01-07T13:02:38.838Z,3.30
2023-01-07T13:03:38.821Z,3.20
2023-01-07T13:04:38.846Z,3.30
2023-01-07T13:05:38.784Z,7.50
2023-01-07T13:06:38.805Z,5.30
2023-01-07T13:07:38.775Z,3.30
2023-01-07T13:08:38.720Z,2.90
2023-01-07T13:09:38.726Z,17.20
2023-01-07T13:10:38.694Z,3.50
2023-01-07T13:11:38.736Z,6.10
2023-01-07T13:12:42.377Z,8.10
2023-01-07T13:13:38.655Z,10.90